Time;durP1;ratioP1;P1;durP2;ratioP2;P2;SDS_P1;SDS_P2;PMS_P1;PMS_P2;Temp;Humidity;BMP_temperature;BMP_pressure;BME280_temperature;BME280_humidity;BME280_pressure;Samples;Min_cycle;Max_cycle;Signal;HPM_P1;HPM_P2
2022/01/08 00:00:08;;;;;;;13.18;6.63;;;;;;;20.58;30.41;100228.50;2084415;28;20052;-64
2022/01/08 00:01:16;;;;;;;11.70;6.70;;;;;;;20.58;30.31;100220.25;2086374;28;20052;-64
2022/01/08 00:02:19;;;;;;;10.75;7.38;;;;;;;20.59;30.20;100216.38;2081837;28;20631;-64
2022/01/08 00:03:28;;;;;;;11.55;6.90;;;;;;;20.57;30.34;100218.69;2083915;28;20070;-63
2022/01/08 00:04:32;;;;;;;14.70;6.78;;;;;;;20.56;30.41;100212.41;2083893;28;20396;-63
2022/01/08 00:05:40;;;;;;;10.77;6.80;;;;;;;20.58;30.21;100212.03;2083087;28;20065;-63
2022/01/08 00:06:45;;;;;;;11.02;6.70;;;;;;;20.60;30.48;100217.94;2084852;28;20049;-65
2022/01/08 00:07:50;;;;;;;11.40;6.75;;;;;;;20.64;30.46;100215.22;2084508;28;20518;-65
2022/01/08 00:08:58;;;;;;;12.38;7.22;;;;;;;20.67;30.16;100215.25;2084376;28;20060;-65
2022/01/08 00:10:01;;;;;;;17.75;6.47;;;;;;;20.70;30.37;100217.28;2082567;28;20060;-66
2022/01/08 00:12:28;;;;;;;12.48;7.15;;;;;;;20.77;30.09;100216.56;2084790;28;20061;-66
2022/01/08 00:13:31;;;;;;;15.80;7.55;;;;;;;20.76;29.99;100218.53;2080775;28;20056;-70
2022/01/08 00:14:40;;;;;;;10.77;6.85;;;;;;;20.73;30.06;100213.00;2083247;28;20061;-67
2022/01/08 00:15:44;;;;;;;12.40;6.90;;;;;;;20.73;30.19;100215.75;2084136;28;20053;-67
2022/01/08 00:16:48;;;;;;;12.00;6.70;;;;;;;20.64;30.33;100209.75;2084383;28;20083;-67
2022/01/08 00:17:52;;;;;;;15.82;7.03;;;;;;;20.68;30.50;100221.56;2082372;28;20057;-66
2022/01/08 00:19:01;;;;;;;10.30;6.60;;;;;;;20.66;30.39;100216.44;2085478;28;20044;-65
2022/01/08 00:20:06;;;;;;;10.65;6.47;;;;;;;20.64;30.67;100218.75;2085668;28;20048;-65
2022/01/08 00:21:13;;;;;;;9.15;6.43;;;;;;;20.66;30.63;100224.66;2085411;28;20041;-66
2022/01/08 00:22:17;;;;;;;9.65;6.63;;;;;;;20.70;30.47;100222.00;2083595;28;20040;-66
2022/01/08 00:23:21;;;;;;;9.25;6.15;;;;;;;20.73;30.53;100221.25;2083915;28;20051;-65
2022/01/08 00:24:26;;;;;;;11.65;6.55;;;;;;;20.74;30.39;100220.06;2084959;28;20041;-66
2022/01/08 00:25:30;;;;;;;10.13;6.40;;;;;;;20.77;30.70;100222.06;2092265;28;20071;-66
2022/01/08 00:26:34;;;;;;;9.90;6.40;;;;;;;20.79;30.41;100217.00;2092161;28;20064;-67
2022/01/08 00:27:39;;;;;;;11.05;6.30;;;;;;;20.77;30.27;100220.13;2085327;28;20049;-66
2022/01/08 00:28:42;;;;;;;10.90;6.80;;;;;;;20.72;30.41;100223.19;2084634;28;20060;-66
2022/01/08 00:29:47;;;;;;;10.18;6.63;;;;;;;20.69;30.48;100229.44;2086190;28;20075;-65
2022/01/08 00:30:53;;;;;;;10.88;6.60;;;;;;;20.67;30.43;100219.97;2084002;28;20566;-66
2022/01/08 00:31:57;;;;;;;10.90;6.88;;;;;;;20.64;30.50;100221.50;2085329;28;20079;-66
2022/01/08 00:33:02;;;;;;;11.07;6.68;;;;;;;20.66;30.54;100213.69;2083560;28;20059;-66
2022/01/08 00:34:09;;;;;;;11.85;6.72;;;;;;;20.65;30.61;100211.34;2083908;28;20281;-65
2022/01/08 00:35:14;;;;;;;10.20;6.45;;;;;;;20.68;30.61;100222.34;2084037;28;20064;-65
2022/01/08 00:36:18;;;;;;;11.25;6.30;;;;;;;20.69;30.65;100212.97;2084885;28;20049;-66
2022/01/08 00:37:22;;;;;;;9.27;6.30;;;;;;;20.68;30.56;100216.88;2083912;28;20053;-66
2022/01/08 00:38:26;;;;;;;11.60;6.75;;;;;;;20.67;30.52;100215.25;2084229;28;20064;-66
2022/01/08 00:39:31;;;;;;;10.20;6.75;;;;;;;20.68;30.59;100219.59;2085170;28;20045;-65
2022/01/08 00:40:37;;;;;;;9.90;6.50;;;;;;;20.68;30.71;100219.59;2083093;28;20053;-66
2022/01/08 00:41:42;;;;;;;11.20;6.78;;;;;;;20.70;30.78;100220.03;2086308;28;20049;-66
2022/01/08 00:42:47;;;;;;;11.75;6.40;;;;;;;20.75;30.86;100227.16;2085645;28;20057;-67
2022/01/08 00:43:51;;;;;;;10.73;6.63;;;;;;;20.77;30.50;100219.31;2083961;28;20052;-67
2022/01/08 00:44:55;;;;;;;10.68;6.70;;;;;;;20.80;30.37;100227.63;2086454;28;20033;-67
2022/01/08 00:46:01;;;;;;;11.25;6.72;;;;;;;20.81;30.33;100229.19;2086284;28;20053;-67
2022/01/08 00:47:04;;;;;;;15.00;6.93;;;;;;;20.82;30.32;100228.00;2086484;28;20049;-67
2022/01/08 00:48:09;;;;;;;9.68;6.65;;;;;;;20.79;30.18;100222.47;2086456;28;20045;-68
2022/01/08 00:49:15;;;;;;;12.73;6.75;;;;;;;20.77;30.14;100233.03;2083673;28;20048;-67
2022/01/08 00:50:21;;;;;;;12.30;6.85;;;;;;;20.74;30.30;100226.38;2086188;28;20759;-67
2022/01/08 00:51:25;;;;;;;12.10;6.88;;;;;;;20.73;30.15;100224.78;2085878;28;20060;-68
2022/01/08 00:52:30;;;;;;;10.25;6.25;;;;;;;20.72;30.13;100220.47;2085406;28;20045;-68
2022/01/08 00:53:33;;;;;;;12.52;6.88;;;;;;;20.72;30.06;100222.41;2084273;28;20060;-68
2022/01/08 00:54:39;;;;;;;10.40;6.78;;;;;;;20.73;30.18;100224.78;2085777;28;20049;-68
2022/01/08 00:55:43;;;;;;;9.93;6.53;;;;;;;20.73;30.18;100219.28;2086277;28;20709;-68
2022/01/08 00:56:50;;;;;;;11.07;6.68;;;;;;;20.74;30.02;100212.66;2083267;28;20053;-67
2022/01/08 00:57:56;;;;;;;10.50;6.40;;;;;;;20.73;30.04;100213.00;2084094;28;20424;-68
2022/01/08 00:59:00;;;;;;;12.48;6.85;;;;;;;20.72;29.96;100211.44;2086269;28;20049;-69
2022/01/08 01:00:09;;;;;;;9.50;6.35;;;;;;;20.73;30.01;100205.56;2085534;28;20057;-72
2022/01/08 01:01:14;;;;;;;;;;;;;;;20.79;29.99;100200.53;2086142;28;20057;-71
2022/01/08 01:02:18;;;;;;;11.25;7.22;;;;;;;20.82;29.99;100203.31;2086047;28;19920;-71
2022/01/08 01:03:26;;;;;;;11.27;7.05;;;;;;;20.90;29.76;100211.63;2085057;28;20222;-71
2022/01/08 01:04:31;;;;;;;10.50;6.63;;;;;;;20.96;29.61;100201.84;2085793;28;20049;-71
2022/01/08 01:05:36;;;;;;;12.02;7.00;;;;;;;20.99;29.64;100192.84;2086302;28;20053;-73
2022/01/08 01:06:43;;;;;;;10.32;6.57;;;;;;;21.00;29.51;100194.47;2086121;28;20781;-74
2022/01/08 01:07:47;;;;;;;12.18;7.40;;;;;;;21.02;29.60;100194.84;2086603;28;20053;-74
2022/01/08 01:08:52;;;;;;;15.18;7.40;;;;;;;21.02;29.54;100198.41;2086474;28;20052;-76
2022/01/08 01:09:57;;;;;;;9.75;6.82;;;;;;;21.03;29.59;100197.22;2087095;28;20048;-80
2022/01/08 01:11:01;;;;;;;9.20;6.72;;;;;;;21.06;29.64;100198.44;2086351;28;20052;-82
2022/01/08 01:12:08;;;;;;;12.20;6.75;;;;;;;21.09;29.62;100194.16;2086717;28;20056;-78
2022/01/08 01:13:12;;;;;;;9.23;6.43;;;;;;;21.09;29.69;100197.69;2087166;28;20056;-80
2022/01/08 01:14:17;;;;;;;9.70;6.35;;;;;;;21.17;29.69;100198.53;2087403;28;20048;-80
2022/01/08 01:15:20;;;;;;;11.10;7.15;;;;;;;21.20;29.30;100198.56;2087482;28;20060;-80
2022/01/08 01:16:25;;;;;;;11.15;7.00;;;;;;;21.23;29.29;100197.78;2086533;28;20045;-78
2022/01/08 01:17:29;;;;;;;11.20;6.72;;;;;;;21.22;29.26;100196.22;2087030;28;20045;-78
2022/01/08 01:18:36;;;;;;;10.82;6.88;;;;;;;21.25;29.27;100200.19;2087198;28;20053;-77
2022/01/08 01:19:43;;;;;;;12.02;6.63;;;;;;;21.26;29.31;100196.25;2087297;28;20084;-75
2022/01/08 01:20:47;;;;;;;10.45;7.00;;;;;;;21.24;29.19;100196.63;2086464;28;20063;-71
2022/01/08 01:21:49;;;;;;;11.07;6.70;;;;;;;21.29;29.26;100193.53;2086867;28;20048;-73
2022/01/08 01:23:00;;;;;;;10.18;6.50;;;;;;;21.32;29.07;100183.75;2086811;28;20061;-72
2022/01/08 01:24:13;;;;;;;11.98;7.15;;;;;;;21.36;29.13;100187.28;2088005;28;20060;-73
2022/01/08 01:25:21;;;;;;;10.65;6.50;;;;;;;21.39;29.06;100183.78;2088103;28;20587;-72
2022/01/08 01:26:28;;;;;;;11.48;6.82;;;;;;;21.40;28.99;100184.56;2088583;28;20049;-71
2022/01/08 01:28:55;;;;;;;12.45;6.53;;;;;;;21.54;28.96;100189.44;2086972;28;20060;-72
2022/01/08 01:30:06;;;;;;;12.65;6.95;;;;;;;21.59;28.66;100189.06;2087556;28;20741;-71
2022/01/08 01:42:25;;;;;;;10.00;6.65;;;;;;;21.96;28.11;100199.88;2080236;28;20057;-72
2022/01/08 01:47:00;;;;;;;12.48;6.93;;;;;;;22.01;27.98;100196.00;2086985;28;20052;-72
2022/01/08 01:47:43;;;;;;;10.05;6.80;;;;;;;22.13;28.00;100182.72;2078995;28;20049;-72
2022/01/08 01:48:47;;;;;;;9.43;6.85;;;;;;;22.07;27.85;100173.22;2079360;28;20049;-71
2022/01/08 01:49:52;;;;;;;10.95;6.88;;;;;;;22.18;27.77;100182.34;2079911;28;20079;-72
2022/01/08 01:51:01;;;;;;;13.45;7.63;;;;;;;22.22;27.81;100184.31;2080167;28;20050;-72
2022/01/08 01:52:05;;;;;;;9.40;6.80;;;;;;;22.24;27.78;100190.22;2079635;28;20049;-72
2022/01/08 01:53:11;;;;;;;10.13;6.78;;;;;;;22.25;27.58;100187.06;2079350;28;20057;-72
2022/01/08 01:54:16;;;;;;;11.60;7.13;;;;;;;22.28;27.67;100188.25;2080043;28;20042;-72
2022/01/08 01:55:21;;;;;;;11.27;6.82;;;;;;;22.30;27.69;100180.41;2079540;28;20049;-73
2022/01/08 01:56:24;;;;;;;12.77;7.07;;;;;;;22.31;27.70;100180.03;2079902;28;20038;-72
2022/01/08 01:57:31;;;;;;;14.05;7.13;;;;;;;22.30;27.69;100180.41;2079729;28;20042;-73
2022/01/08 01:58:35;;;;;;;10.85;6.38;;;;;;;22.25;27.62;100189.03;2079486;28;20307;-79
2022/01/08 01:59:40;;;;;;;12.48;7.20;;;;;;;22.20;27.83;100180.00;2080529;28;20041;-74
2022/01/08 02:00:43;;;;;;;10.82;7.13;;;;;;;22.12;27.75;100183.88;2080134;28;20061;-74
2022/01/08 02:01:50;;;;;;;9.93;6.57;;;;;;;22.06;27.91;100182.63;2087547;28;20045;-74
2022/01/08 02:02:53;;;;;;;11.90;6.80;;;;;;;22.01;27.84;100180.28;2086424;28;20048;-77
2022/01/08 02:03:59;;;;;;;10.57;6.55;;;;;;;21.97;28.07;100179.47;2080183;28;20054;-77
2022/01/08 02:05:03;;;;;;;11.25;6.95;;;;;;;21.94;27.87;100174.75;2079920;28;20056;-77
2022/01/08 02:06:11;;;;;;;11.82;7.22;;;;;;;21.89;27.84;100175.09;2080279;28;20053;-77
2022/01/08 02:07:23;;;;;;;11.15;7.05;;;;;;;21.81;28.00;100170.72;2079731;28;20049;-82
2022/01/08 02:08:28;;;;;;;14.80;7.03;;;;;;;21.71;28.23;100175.78;2079769;28;20721;-77
2022/01/08 02:09:37;;;;;;;12.38;7.38;;;;;;;21.63;28.13;100176.13;2079438;28;20045;-78
2022/01/08 02:10:42;;;;;;;9.90;7.15;;;;;;;21.56;28.38;100165.06;2079754;28;20057;-77
2022/01/08 02:11:56;;;;;;;12.20;7.20;;;;;;;21.63;28.38;100181.63;2088000;28;20056;-82
2022/01/08 02:13:03;;;;;;;12.02;7.32;;;;;;;21.61;28.18;100179.25;2087818;28;20061;-82
2022/01/08 02:14:10;;;;;;;11.02;6.95;;;;;;;21.56;28.35;100170.56;2088163;28;20052;-82
2022/01/08 02:15:16;;;;;;;10.15;7.00;;;;;;;21.45;28.49;100165.03;2088137;28;20496;-82
2022/01/08 02:16:20;;;;;;;10.23;6.43;;;;;;;21.49;28.30;100174.06;2088403;28;20060;-82
2022/01/08 02:17:28;;;;;;;10.90;6.80;;;;;;;21.55;28.37;100178.03;2088027;28;20079;-83
2022/01/08 02:18:33;;;;;;;12.50;7.38;;;;;;;21.55;28.40;100174.50;2087692;28;20049;-84
2022/01/08 02:19:40;;;;;;;12.05;7.00;;;;;;;21.53;27.98;100172.16;2086846;28;20056;-84
2022/01/08 02:20:48;;;;;;;10.15;6.40;;;;;;;21.49;28.40;100177.59;2088639;28;20132;-87
2022/01/08 02:21:55;;;;;;;11.57;6.93;;;;;;;21.54;28.53;100172.94;2088543;28;20049;-73
2022/01/08 02:23:00;;;;;;;11.57;7.25;;;;;;;21.54;28.36;100173.72;2087460;28;20385;-74
2022/01/08 02:24:04;;;;;;;12.13;7.47;;;;;;;21.57;28.46;100178.44;2086383;28;20049;-73
2022/01/08 02:25:11;;;;;;;13.30;7.15;;;;;;;21.64;28.33;100175.75;2087350;28;20052;-73
2022/01/08 02:26:15;;;;;;;10.95;6.93;;;;;;;21.72;28.21;100182.09;2087352;28;20045;-72
2022/01/08 02:27:21;;;;;;;10.82;6.75;;;;;;;21.77;28.23;100173.47;2087660;28;20373;-73
2022/01/08 02:28:26;;;;;;;9.73;6.55;;;;;;;21.87;28.05;100180.19;2094694;28;20040;-74
2022/01/08 02:29:33;;;;;;;10.35;6.97;;;;;;;21.92;27.95;100177.88;2086543;28;20045;-74
2022/01/08 02:30:39;;;;;;;13.60;7.32;;;;;;;21.99;27.92;100174.34;2079293;28;20053;-74
2022/01/08 02:31:54;;;;;;;12.10;6.85;;;;;;;22.05;27.81;100169.28;2086780;28;20183;-74
2022/01/08 02:32:59;;;;;;;11.05;7.20;;;;;;;22.10;27.68;100166.19;2086724;28;20060;-74
2022/01/08 02:34:05;;;;;;;12.80;7.15;;;;;;;22.13;27.59;100160.72;2085829;28;20056;-74
2022/01/08 02:35:11;;;;;;;10.95;6.25;;;;;;;22.18;27.68;100160.31;2087688;28;20041;-74
2022/01/08 02:36:17;;;;;;;11.13;7.15;;;;;;;22.25;27.70;100161.53;2086905;28;20044;-72
2022/01/08 02:37:25;;;;;;;11.07;7.13;;;;;;;22.31;27.40;100159.97;2095141;28;20135;-73
2022/01/08 02:38:28;;;;;;;;;;;;;;;22.35;27.32;100166.28;2094175;28;20049;-74
2022/01/08 02:39:38;;;;;;;12.43;7.07;;;;;;;22.36;27.65;100163.16;2087720;28;19928;-73
2022/01/08 02:40:51;;;;;;;9.95;7.22;;;;;;;22.38;27.43;100155.28;2087675;28;20361;-73
2022/01/08 02:41:58;;;;;;;11.20;6.90;;;;;;;22.43;27.36;100162.38;2087412;28;20048;-74
2022/01/08 02:43:04;;;;;;;11.90;6.95;;;;;;;22.47;27.32;100162.38;2087214;28;20378;-74
2022/01/08 02:44:08;;;;;;;11.45;7.50;;;;;;;22.51;27.19;100163.19;2087414;28;20424;-72
2022/01/08 02:45:14;;;;;;;9.48;6.53;;;;;;;22.57;27.32;100164.38;2087627;28;20715;-73
2022/01/08 02:46:18;;;;;;;13.80;7.10;;;;;;;22.61;27.35;100168.72;2087436;28;20465;-76
2022/01/08 02:47:23;;;;;;;15.68;6.93;;;;;;;22.62;27.20;100159.25;2086328;28;20049;-74
2022/01/08 02:48:27;;;;;;;11.30;7.15;;;;;;;22.63;27.27;100165.56;2079214;28;20045;-73
2022/01/08 02:49:34;;;;;;;15.23;6.90;;;;;;;22.61;27.16;100159.66;2087263;28;20424;-75
2022/01/08 02:50:38;;;;;;;9.98;6.80;;;;;;;22.50;27.37;100158.84;2093843;28;20052;-76
2022/01/08 02:51:45;;;;;;;12.30;7.18;;;;;;;22.37;27.46;100159.22;2087213;28;20158;-74
2022/01/08 02:52:49;;;;;;;9.60;7.07;;;;;;;22.24;27.60;100160.75;2086964;28;20057;-71
2022/01/08 02:53:54;;;;;;;10.82;6.82;;;;;;;22.15;27.90;100157.56;2086959;28;20060;-79
2022/01/08 02:54:58;;;;;;;10.73;6.53;;;;;;;22.05;27.88;100159.06;2088021;28;20720;-79
2022/01/08 02:56:03;;;;;;;12.63;6.88;;;;;;;21.99;27.79;100163.34;2087779;28;20045;-80
2022/01/08 02:57:07;;;;;;;10.57;6.43;;;;;;;21.90;28.01;100158.19;2087350;28;20386;-79
2022/01/08 02:58:12;;;;;;;10.75;6.90;;;;;;;21.84;27.92;100147.97;2086268;28;20060;-78
2022/01/08 02:59:16;;;;;;;9.30;6.57;;;;;;;21.78;28.04;100152.25;2086736;28;20049;-79
2022/01/08 03:00:21;;;;;;;9.93;6.90;;;;;;;21.73;28.16;100156.16;2087772;28;20052;-79
2022/01/08 03:01:25;;;;;;;10.00;6.50;;;;;;;21.69;28.17;100153.41;2087611;28;20468;-79
2022/01/08 03:02:29;;;;;;;10.73;7.20;;;;;;;21.64;28.29;100151.00;2087709;28;20053;-78
2022/01/08 03:03:32;;;;;;;11.70;6.82;;;;;;;21.56;28.31;100151.34;2087429;28;20049;-74
2022/01/08 03:04:37;;;;;;;12.65;6.97;;;;;;;21.50;28.64;100150.94;2086008;28;20041;-76
2022/01/08 03:05:41;;;;;;;10.48;6.53;;;;;;;21.43;28.52;100143.44;2086734;28;20064;-75
2022/01/08 03:06:48;;;;;;;10.52;6.82;;;;;;;21.39;28.58;100145.31;2087592;28;20052;-77
2022/01/08 03:07:52;;;;;;;11.30;6.90;;;;;;;21.35;28.69;100140.97;2087211;28;20584;-75
2022/01/08 03:08:57;;;;;;;10.45;6.80;;;;;;;21.30;28.85;100139.38;2086988;28;20068;-75
2022/01/08 03:10:02;;;;;;;10.65;7.28;;;;;;;21.26;28.89;100136.59;2087385;28;20045;-77
2022/01/08 03:11:09;;;;;;;11.52;7.13;;;;;;;21.21;28.97;100150.69;2087322;28;20056;-78
2022/01/08 03:12:12;;;;;;;13.25;6.75;;;;;;;21.17;28.93;100138.88;2087799;28;20057;-79
2022/01/08 03:13:20;;;;;;;9.60;6.75;;;;;;;21.14;29.02;100141.59;2087963;28;20408;-80
2022/01/08 03:14:24;;;;;;;11.38;6.63;;;;;;;21.11;29.11;100145.88;2088245;28;20056;-78
2022/01/08 03:15:29;;;;;;;10.82;6.57;;;;;;;21.11;29.08;100139.63;2086585;28;20048;-76
2022/01/08 03:16:33;;;;;;;12.48;6.45;;;;;;;21.07;29.00;100133.31;2086876;28;20075;-78
2022/01/08 03:17:40;;;;;;;8.27;6.30;;;;;;;21.03;29.26;100134.06;2086480;28;20049;-78
2022/01/08 03:18:44;;;;;;;14.93;6.97;;;;;;;21.02;29.27;100131.69;2087230;28;20048;-77
2022/01/08 03:19:50;;;;;;;12.48;6.85;;;;;;;21.00;29.29;100128.56;2087833;28;20059;-77
2022/01/08 03:21:01;;;;;;;10.70;6.70;;;;;;;20.98;29.14;100136.38;2087539;28;20049;-77
2022/01/08 03:22:09;;;;;;;13.82;7.40;;;;;;;20.95;29.21;100137.13;2086539;28;20406;-76
2022/01/08 03:23:14;;;;;;;11.27;6.85;;;;;;;20.93;29.23;100139.47;2087174;28;20052;-75
2022/01/08 03:24:26;;;;;;;9.88;6.82;;;;;;;20.92;29.40;100140.63;2087373;28;20049;-77
2022/01/08 03:25:28;;;;;;;10.80;6.70;;;;;;;20.89;29.32;100131.19;2094473;28;20049;-75
2022/01/08 03:26:33;;;;;;;15.40;7.03;;;;;;;20.91;29.48;100133.56;2093925;28;20044;-75
2022/01/08 03:27:37;;;;;;;11.30;6.68;;;;;;;20.91;29.54;100128.09;2086935;28;20049;-77
2022/01/08 03:28:43;;;;;;;9.52;6.60;;;;;;;20.90;29.48;100132.00;2087107;28;20052;-78
2022/01/08 03:29:46;;;;;;;12.15;6.80;;;;;;;20.87;29.47;100130.00;2087417;28;20064;-77
2022/01/08 03:30:52;;;;;;;9.55;6.38;;;;;;;20.88;29.42;100134.34;2087633;28;20064;-79
2022/01/08 03:31:55;;;;;;;17.38;6.78;;;;;;;20.86;29.46;100134.69;2087638;28;20527;-80
2022/01/08 03:33:01;;;;;;;11.65;6.78;;;;;;;20.81;29.46;100130.34;2086792;28;20492;-81
2022/01/08 03:34:05;;;;;;;11.15;7.40;;;;;;;20.78;29.51;100127.59;2087438;28;20060;-79
2022/01/08 03:35:10;;;;;;;15.93;6.65;;;;;;;20.77;29.53;100132.28;2087987;28;20041;-79
2022/01/08 03:36:17;;;;;;;10.55;7.13;;;;;;;20.75;29.47;100137.34;2088042;28;20052;-79
2022/01/08 03:37:25;;;;;;;9.60;6.85;;;;;;;20.74;29.67;100133.03;2087674;28;20045;-80
2022/01/08 03:38:29;;;;;;;;;;;;;;;20.75;29.59;100133.81;2088065;28;20064;-79
2022/01/08 03:39:34;;;;;;;12.55;6.63;;;;;;;20.73;29.52;100134.19;2087289;28;20298;-79
2022/01/08 03:40:37;;;;;;;23.92;6.55;;;;;;;20.75;29.97;100133.81;2085787;28;20057;-78
2022/01/08 03:41:42;;;;;;;10.32;6.80;;;;;;;20.75;29.60;100131.88;2079070;28;20071;-83
2022/01/08 03:42:46;;;;;;;10.95;6.78;;;;;;;20.74;29.61;100127.56;2089031;28;20049;-89
2022/01/08 03:43:54;;;;;;;10.50;6.75;;;;;;;20.73;29.58;100125.94;2088140;28;20049;-81
2022/01/08 03:44:58;;;;;;;9.15;6.07;;;;;;;20.72;29.69;100127.13;2087146;28;20049;-80
2022/01/08 03:46:05;;;;;;;13.32;6.60;;;;;;;20.73;29.57;100125.16;2086135;28;20635;-75
2022/01/08 03:47:24;;;;;;;9.38;6.35;;;;;;;20.71;29.55;100125.56;2078339;28;20053;-75
2022/01/08 03:48:31;;;;;;;11.68;6.43;;;;;;;20.72;29.57;100124.38;2086455;28;20049;-79
2022/01/08 03:49:34;;;;;;;11.18;6.50;;;;;;;20.70;29.67;100129.44;2086515;28;20511;-73
2022/01/08 03:50:40;;;;;;;10.30;7.38;;;;;;;20.68;29.67;100129.03;2087250;28;20056;-71
2022/01/08 03:51:44;;;;;;;10.32;5.85;;;;;;;20.71;29.72;100127.53;2086908;28;20068;-80
2022/01/08 03:52:52;;;;;;;10.25;6.88;;;;;;;20.71;29.70;100125.56;2085862;28;20056;-73
2022/01/08 03:53:57;;;;;;;8.90;6.40;;;;;;;20.72;29.48;100124.38;2086367;28;20048;-75
2022/01/08 03:55:04;;;;;;;10.40;6.18;;;;;;;20.71;29.62;100127.53;2087078;28;20053;-80
2022/01/08 03:56:12;;;;;;;9.10;6.50;;;;;;;20.67;29.68;100121.94;2087068;28;20060;-80
2022/01/08 03:57:15;;;;;;;9.18;6.10;;;;;;;20.65;29.58;100113.31;2086565;28;20053;-80
2022/01/08 03:58:20;;;;;;;11.23;6.35;;;;;;;20.64;29.84;100116.44;2086504;28;20041;-80
2022/01/08 03:59:24;;;;;;;9.93;6.05;;;;;;;20.62;29.66;100113.28;2086701;28;20063;-80
2022/01/08 04:00:30;;;;;;;10.07;6.38;;;;;;;20.60;29.71;100117.19;2086454;28;20120;-79
2022/01/08 04:01:33;;;;;;;9.38;6.60;;;;;;;20.59;29.63;100120.31;2086979;28;20723;-80
2022/01/08 04:02:41;;;;;;;9.07;5.90;;;;;;;20.57;29.85;100115.19;2087031;28;20057;-80
2022/01/08 04:03:44;;;;;;;10.40;6.93;;;;;;;20.56;29.65;100110.09;2087378;28;20511;-79
2022/01/08 04:04:50;;;;;;;8.32;6.30;;;;;;;20.55;29.70;100114.78;2087213;28;20056;-80
2022/01/08 04:05:55;;;;;;;9.10;6.30;;;;;;;20.55;29.77;100109.31;2086111;28;20061;-79
2022/01/08 04:07:00;;;;;;;10.30;6.28;;;;;;;20.57;29.85;100101.47;2086325;28;20055;-80
2022/01/08 04:08:10;;;;;;;11.77;6.50;;;;;;;20.57;29.46;100109.69;2086405;28;20057;-80
2022/01/08 04:09:18;;;;;;;11.05;6.47;;;;;;;20.54;29.65;100109.66;2086323;28;20045;-80
2022/01/08 04:10:21;;;;;;;11.05;6.32;;;;;;;20.52;29.82;100109.28;2087014;28;20773;-82
2022/01/08 04:11:26;;;;;;;9.57;6.25;;;;;;;20.53;29.94;100110.84;2086618;28;20304;-80
2022/01/08 04:12:38;;;;;;;11.27;6.47;;;;;;;20.53;29.86;100106.13;2086569;28;20080;-80
2022/01/08 04:13:42;;;;;;;9.68;6.35;;;;;;;20.56;29.79;100108.13;2087276;28;20436;-81
2022/01/08 04:14:55;;;;;;;9.20;6.53;;;;;;;20.57;29.70;100103.44;2086768;28;20087;-80
2022/01/08 04:16:01;;;;;;;9.98;6.30;;;;;;;20.57;29.74;100106.97;2087265;28;20049;-79
2022/01/08 04:17:07;;;;;;;10.20;6.05;;;;;;;20.57;29.88;100101.47;2087568;28;20365;-80
2022/01/08 04:18:11;;;;;;;12.00;6.25;;;;;;;20.60;29.94;100100.72;2087613;28;20045;-80
2022/01/08 04:19:19;;;;;;;8.07;5.65;;;;;;;20.59;29.67;100098.34;2087306;28;20044;-79
2022/01/08 04:20:23;;;;;;;10.93;6.50;;;;;;;20.57;29.71;100103.44;2086946;28;20044;-78
2022/01/08 04:23:02;;;;;;;10.13;5.95;;;;;;;20.53;29.65;100100.66;2074263;28;20141;-79
2022/01/08 04:24:10;;;;;;;8.60;6.10;;;;;;;20.55;29.77;100108.53;2077658;28;20528;-78
2022/01/08 04:25:15;;;;;;;10.63;6.40;;;;;;;20.54;29.78;100095.94;2079800;28;20568;-79
2022/01/08 04:26:21;;;;;;;8.18;6.00;;;;;;;20.53;29.79;100094.38;2087055;28;20540;-80
2022/01/08 04:27:29;;;;;;;9.40;6.07;;;;;;;20.53;29.63;100099.88;2087139;28;20045;-81
2022/01/08 04:28:33;;;;;;;10.18;6.25;;;;;;;20.52;29.77;100092.81;2087111;28;20045;-80
2022/01/08 04:29:38;;;;;;;9.25;6.20;;;;;;;20.50;29.81;100095.91;2086937;28;20045;-80
2022/01/08 04:30:42;;;;;;;9.38;6.07;;;;;;;20.51;29.79;100094.75;2087346;28;20044;-86
2022/01/08 04:31:47;;;;;;;9.65;6.18;;;;;;;20.51;29.75;100099.44;2086972;28;20417;-78
2022/01/08 04:32:51;;;;;;;10.27;5.60;;;;;;;20.45;29.76;100093.50;2087208;28;20060;-78
2022/01/08 04:33:56;;;;;;;12.00;6.43;;;;;;;20.40;29.73;100098.56;2086989;28;20057;-78
2022/01/08 04:34:59;;;;;;;11.75;6.53;;;;;;;20.35;29.80;100094.97;2086853;28;20056;-76
2022/01/08 04:36:04;;;;;;;9.65;6.43;;;;;;;20.35;29.85;100097.72;2087265;28;20064;-77
2022/01/08 04:37:10;;;;;;;9.13;6.00;;;;;;;20.35;29.81;100094.97;2087252;28;20045;-76
2022/01/08 04:38:14;;;;;;;7.95;6.00;;;;;;;20.36;29.86;100096.56;2086982;28;20048;-76
2022/01/08 04:39:21;;;;;;;9.82;6.07;;;;;;;20.39;29.85;100091.47;2086666;28;20060;-76
2022/01/08 04:40:26;;;;;;;8.90;6.38;;;;;;;20.39;29.77;100097.75;2086757;28;20048;-76
2022/01/08 04:41:29;;;;;;;15.30;6.47;;;;;;;20.40;29.75;100095.81;2086349;28;20762;-77
2022/01/08 04:42:34;;;;;;;11.23;5.70;;;;;;;20.41;29.88;100091.91;2087470;28;20044;-77
2022/01/08 04:43:42;;;;;;;8.48;6.38;;;;;;;20.42;29.86;100090.72;2086837;28;20063;-74
2022/01/08 04:44:49;;;;;;;8.95;6.28;;;;;;;20.45;29.91;100092.72;2087150;28;20397;-74
2022/01/08 04:45:53;;;;;;;8.65;6.50;;;;;;;20.47;29.69;100090.41;2086871;28;20045;-73
2022/01/08 04:46:58;;;;;;;9.75;5.88;;;;;;;20.50;29.65;100086.91;2086458;28;20531;-74
2022/01/08 04:48:03;;;;;;;9.98;5.97;;;;;;;20.51;29.60;100085.72;2086624;28;20049;-73
2022/01/08 04:49:12;;;;;;;8.60;5.70;;;;;;;20.54;29.62;100082.22;2086529;28;20641;-73
2022/01/08 04:50:16;;;;;;;11.35;6.03;;;;;;;20.57;29.50;100086.97;2086949;28;20053;-73
2022/01/08 04:51:21;;;;;;;9.43;5.80;;;;;;;20.58;29.59;100083.84;2087404;28;20045;-74
2022/01/08 04:52:25;;;;;;;9.75;5.55;;;;;;;20.60;29.71;100077.97;2087032;28;20052;-75
2022/01/08 04:53:30;;;;;;;8.85;6.13;;;;;;;20.62;29.54;100080.34;2086657;28;20048;-75
2022/01/08 04:54:36;;;;;;;8.75;5.80;;;;;;;20.62;29.52;100070.16;2086642;28;20057;-74
2022/01/08 04:55:43;;;;;;;8.82;6.05;;;;;;;20.67;29.51;100078.03;2087238;28;20068;-75
2022/01/08 04:56:46;;;;;;;9.40;6.45;;;;;;;20.70;29.50;100077.31;2088050;28;20052;-74
2022/01/08 04:57:51;;;;;;;8.23;5.68;;;;;;;20.73;29.40;100081.25;2089154;28;20057;-71
2022/01/08 04:58:55;;;;;;;12.05;5.68;;;;;;;20.75;29.40;100074.22;2089003;28;20053;-71
2022/01/08 05:00:00;;;;;;;9.30;6.30;;;;;;;20.80;29.43;100075.81;2088447;28;20567;-77
2022/01/08 05:01:04;;;;;;;8.52;6.07;;;;;;;20.82;29.26;100082.50;2088724;28;20045;-72
2022/01/08 05:02:09;;;;;;;9.50;6.07;;;;;;;20.82;29.45;100085.25;2088681;28;20060;-72
2022/01/08 05:03:13;;;;;;;9.82;6.05;;;;;;;20.85;29.52;100075.47;2088793;28;20057;-72
2022/01/08 05:04:17;;;;;;;11.70;6.47;;;;;;;20.86;29.36;100077.03;2088388;28;20124;-71
2022/01/08 05:05:22;;;;;;;10.82;6.07;;;;;;;20.85;29.34;100080.19;2088538;28;20045;-71
2022/01/08 05:06:28;;;;;;;7.82;6.10;;;;;;;20.85;29.40;100080.97;2088275;28;20060;-73
2022/01/08 05:07:37;;;;;;;7.55;5.72;;;;;;;20.83;29.41;100080.53;2087467;28;20766;-72
2022/01/08 05:08:40;;;;;;;7.10;5.50;;;;;;;20.85;29.30;100077.44;2088146;28;20048;-72
2022/01/08 05:09:48;;;;;;;7.72;5.97;;;;;;;20.79;29.32;100080.53;2088643;28;20064;-71
2022/01/08 05:10:53;;;;;;;9.95;5.53;;;;;;;20.78;29.50;100078.16;2088902;28;20452;-74
2022/01/08 05:11:58;;;;;;;9.20;5.72;;;;;;;20.77;29.74;100080.13;2088926;28;20049;-76
2022/01/08 05:13:05;;;;;;;8.75;5.93;;;;;;;20.77;29.54;100077.38;2088650;28;20052;-81
2022/01/08 05:14:10;;;;;;;8.13;6.00;;;;;;;20.77;29.52;100080.13;2088291;28;20060;-73
2022/01/08 05:15:16;;;;;;;8.57;5.93;;;;;;;20.77;29.58;100082.88;2088237;28;20049;-73
2022/01/08 05:16:20;;;;;;;8.93;5.65;;;;;;;20.78;29.54;100089.94;2088258;28;20044;-72
2022/01/08 05:17:29;;;;;;;9.15;5.80;;;;;;;20.77;29.61;100076.56;2087941;28;20429;-72
2022/01/08 05:18:34;;;;;;;7.93;5.55;;;;;;;20.77;29.51;100082.88;2088050;28;20053;-71
2022/01/08 05:19:44;;;;;;;8.75;5.63;;;;;;;20.77;29.60;100082.06;2088755;28;20413;-73
2022/01/08 05:20:55;;;;;;;8.85;5.82;;;;;;;20.78;29.69;100084.44;2096182;28;20059;-71